createdAt,value
2022-08-17T00:01:26.228Z,10.47
2022-08-17T00:06:31.389Z,10.63
2022-08-17T00:11:39.854Z,7.90
2022-08-17T00:16:56.375Z,9.77
2022-08-17T00:22:31.235Z,8.30
2022-08-17T00:28:00.424Z,10.93
2022-08-17T00:33:14.952Z,15.70
2022-08-17T00:38:20.205Z,9.70
2022-08-17T00:43:34.182Z,11.20
2022-08-17T00:48:38.530Z,11.47
2022-08-17T00:53:44.777Z,8.90
2022-08-17T00:58:50.368Z,9.80
2022-08-17T01:03:58.025Z,9.03
2022-08-17T01:09:04.760Z,10.77
2022-08-17T01:14:09.843Z,9.53
2022-08-17T01:19:18.210Z,10.53
2022-08-17T01:24:30.580Z,9.07
2022-08-17T01:29:40.434Z,10.20
2022-08-17T01:34:50.556Z,12.17
2022-08-17T01:40:03.981Z,9.50
2022-08-17T01:45:11.963Z,9.37
2022-08-17T01:50:18.197Z,13.83
2022-08-17T01:55:29.638Z,15.93
2022-08-17T02:00:59.870Z,11.50
2022-08-17T02:05:58.967Z,11.20
2022-08-17T02:11:05.382Z,11.53
2022-08-17T02:16:15.435Z,9.33
2022-08-17T02:21:21.205Z,11.30
2022-08-17T02:26:26.413Z,9.67
2022-08-17T02:31:30.112Z,12.63
2022-08-17T02:36:35.492Z,10.60
2022-08-17T02:41:40.865Z,16.70
2022-08-17T02:46:44.007Z,12.57
2022-08-17T02:51:47.180Z,11.97
2022-08-17T02:56:51.388Z,10.67
2022-08-17T03:01:54.344Z,10.97
2022-08-17T03:06:57.829Z,10.43
2022-08-17T03:12:07.352Z,10.17
2022-08-17T03:17:17.478Z,14.30
2022-08-17T03:22:36.864Z,11.33
2022-08-17T03:27:45.315Z,17.80
2022-08-17T03:32:56.204Z,11.80
2022-08-17T03:38:00.049Z,11.97
2022-08-17T03:43:10.677Z,11.77
2022-08-17T03:48:34.223Z,18.07
2022-08-17T03:54:06.148Z,13.10
2022-08-17T03:59:20.996Z,12.00
2022-08-17T04:04:27.644Z,15.37
2022-08-17T04:09:31.043Z,13.13
2022-08-17T04:14:51.811Z,13.93
2022-08-17T04:19:58.041Z,21.30
2022-08-17T04:25:09.493Z,15.93
2022-08-17T04:30:14.490Z,15.90
2022-08-17T04:35:20.173Z,18.00
2022-08-17T04:40:42.616Z,17.90
2022-08-17T04:45:54.965Z,13.97
2022-08-17T04:51:01.493Z,20.03
2022-08-17T04:56:04.757Z,14.60
2022-08-17T05:01:09.592Z,16.10
2022-08-17T05:06:12.587Z,14.00
2022-08-17T05:11:18.976Z,16.20
2022-08-17T05:16:24.475Z,19.80
2022-08-17T05:21:28.289Z,16.00
2022-08-17T05:26:31.000Z,15.03
2022-08-17T05:31:35.024Z,16.03
2022-08-17T05:36:43.150Z,15.30
2022-08-17T05:41:49.537Z,19.33
2022-08-17T05:46:54.387Z,11.10
2022-08-17T05:52:21.687Z,20.17
2022-08-17T05:57:36.960Z,15.00
2022-08-17T06:03:01.424Z,15.13
2022-08-17T06:08:13.379Z,11.93
2022-08-17T06:13:27.448Z,7.57
2022-08-17T06:18:39.719Z,11.77
2022-08-17T06:23:57.988Z,8.43
2022-08-17T06:29:28.534Z,12.93
2022-08-17T06:34:36.110Z,9.50
2022-08-17T06:39:49.595Z,5.70
2022-08-17T06:45:17.966Z,7.27
2022-08-17T06:50:30.823Z,8.37
2022-08-17T06:55:44.207Z,10.17
2022-08-17T07:00:49.556Z,9.37
2022-08-17T07:06:00.219Z,8.93
2022-08-17T07:11:06.539Z,10.47
2022-08-17T07:16:16.652Z,10.97
2022-08-17T07:21:37.104Z,7.50
2022-08-17T07:26:39.856Z,9.90
2022-08-17T07:31:42.508Z,13.93
2022-08-17T07:36:48.639Z,13.33
2022-08-17T07:41:57.442Z,20.93
2022-08-17T07:47:34.047Z,10.83
2022-08-17T07:52:50.573Z,13.47
2022-08-17T07:57:58.248Z,15.47
2022-08-17T08:03:12.462Z,19.83
2022-08-17T08:08:29.761Z,11.07
2022-08-17T08:13:33.249Z,12.93
2022-08-17T08:18:54.451Z,19.03
2022-08-17T08:24:26.337Z,15.27
2022-08-17T08:29:42.735Z,16.87
2022-08-17T08:35:02.681Z,21.63
2022-08-17T08:40:21.177Z,18.07
2022-08-17T08:45:30.599Z,18.50
2022-08-17T08:50:46.508Z,21.13
2022-08-17T08:55:55.812Z,16.80
2022-08-17T09:00:59.864Z,17.40
2022-08-17T09:06:37.833Z,26.40
2022-08-17T09:12:01.924Z,20.50
2022-08-17T09:17:13.801Z,18.60
2022-08-17T09:22:31.274Z,20.87
2022-08-17T09:27:47.541Z,19.13
2022-08-17T09:32:55.194Z,14.67
2022-08-17T09:38:04.326Z,17.27
2022-08-17T09:43:14.100Z,13.93
2022-08-17T09:48:22.413Z,18.30
2022-08-17T09:53:25.478Z,28.93
2022-08-17T09:58:42.284Z,20.60
2022-08-17T10:04:06.719Z,18.03
2022-08-17T10:09:20.459Z,20.30
2022-08-17T10:14:36.326Z,22.13
2022-08-17T10:19:48.069Z,27.27
2022-08-17T10:25:23.948Z,25.87
2022-08-17T10:30:34.101Z,31.93
2022-08-17T10:35:45.127Z,25.43
2022-08-17T10:40:55.081Z,26.90
2022-08-17T10:46:10.414Z,28.77
2022-08-17T10:51:38.812Z,34.20
2022-08-17T10:56:46.795Z,29.03
2022-08-17T11:02:13.829Z,34.43
2022-08-17T11:07:27.872Z,32.63
2022-08-17T11:12:42.385Z,37.03
2022-08-17T11:18:22.427Z,37.93
2022-08-17T11:23:50.927Z,37.10
2022-08-17T11:28:59.971Z,46.23
2022-08-17T11:34:10.108Z,47.57
2022-08-17T11:39:29.663Z,46.33
2022-08-17T11:44:47.725Z,50.60
2022-08-17T11:50:34.928Z,53.33
2022-08-17T11:56:03.494Z,51.03
2022-08-17T12:01:08.695Z,56.60
2022-08-17T12:06:41.136Z,53.20
2022-08-17T12:11:55.184Z,68.57
2022-08-17T12:17:22.438Z,56.07
2022-08-17T12:22:54.840Z,56.83
2022-08-17T12:28:05.946Z,56.20
2022-08-17T12:33:25.305Z,58.43
2022-08-17T12:38:36.001Z,56.73
2022-08-17T12:43:39.076Z,62.53
2022-08-17T12:48:59.157Z,61.90
2022-08-17T12:54:07.628Z,62.37
2022-08-17T12:59:12.188Z,61.80
2022-08-17T13:04:24.246Z,63.10
2022-08-17T13:09:40.164Z,57.63
2022-08-17T13:14:46.364Z,59.87
2022-08-17T13:19:50.971Z,54.80
2022-08-17T13:24:58.712Z,58.33
2022-08-17T13:30:08.430Z,58.47
2022-08-17T13:35:49.895Z,58.60
2022-08-17T13:41:09.450Z,59.30
2022-08-17T13:46:20.214Z,51.30
2022-08-17T13:51:29.511Z,61.87
2022-08-17T13:56:49.483Z,53.17
2022-08-17T14:01:54.122Z,54.33
2022-08-17T14:07:04.143Z,53.70
2022-08-17T14:12:12.670Z,57.00
2022-08-17T14:17:20.101Z,53.97
2022-08-17T14:22:32.464Z,48.43
2022-08-17T14:27:41.760Z,52.77
2022-08-17T14:32:56.524Z,48.97
2022-08-17T14:37:59.801Z,42.00
2022-08-17T14:43:03.946Z,36.70
2022-08-17T14:48:07.980Z,40.43
2022-08-17T14:53:15.274Z,43.90
2022-08-17T14:58:22.342Z,46.53
2022-08-17T15:03:25.210Z,41.10
2022-08-17T15:08:28.237Z,46.47
2022-08-17T15:13:33.019Z,47.77
2022-08-17T15:18:37.010Z,45.13
2022-08-17T15:23:40.292Z,42.10
2022-08-17T15:28:54.320Z,39.37
2022-08-17T15:33:59.396Z,45.47
2022-08-17T15:39:05.429Z,48.00
2022-08-17T15:44:09.799Z,45.13
2022-08-17T15:49:12.763Z,40.07
2022-08-17T15:54:23.431Z,49.10
2022-08-17T15:59:33.158Z,44.93
2022-08-17T16:04:36.039Z,48.83
2022-08-17T16:09:44.925Z,46.80
2022-08-17T16:14:51.631Z,46.03
2022-08-17T16:19:54.777Z,47.60
2022-08-17T16:24:59.907Z,43.53
2022-08-17T16:30:07.816Z,47.73
2022-08-17T16:35:16.091Z,47.03
2022-08-17T16:40:31.304Z,45.63
2022-08-17T16:46:03.059Z,46.53
2022-08-17T16:51:06.004Z,46.17
2022-08-17T16:56:08.806Z,48.00
2022-08-17T17:01:18.977Z,45.07
2022-08-17T17:06:35.074Z,41.87
2022-08-17T17:11:46.026Z,37.27
2022-08-17T17:17:00.935Z,27.03
2022-08-17T17:22:16.128Z,28.23
2022-08-17T17:27:32.447Z,30.53
2022-08-17T17:32:41.631Z,30.93
2022-08-17T17:37:46.489Z,37.90
2022-08-17T17:42:55.195Z,39.30
2022-08-17T17:47:59.623Z,38.20
2022-08-17T17:53:07.486Z,31.50
2022-08-17T17:58:22.519Z,23.03
2022-08-17T18:03:46.128Z,24.10
2022-08-17T18:09:11.292Z,24.53
2022-08-17T18:14:43.647Z,27.67
2022-08-17T18:19:49.880Z,29.17
2022-08-17T18:25:02.795Z,28.57
2022-08-17T18:30:28.875Z,28.67
2022-08-17T18:35:35.175Z,27.77
2022-08-17T18:40:38.891Z,29.27
2022-08-17T18:45:48.304Z,27.67
2022-08-17T18:50:54.004Z,27.33
2022-08-17T18:56:30.697Z,26.97
2022-08-17T19:01:53.250Z,27.97
2022-08-17T19:07:25.791Z,28.93
2022-08-17T19:12:40.594Z,32.33
2022-08-17T19:17:48.792Z,29.60
2022-08-17T19:23:06.059Z,33.60
2022-08-17T19:28:21.454Z,35.93
2022-08-17T19:33:26.761Z,34.50
2022-08-17T19:38:41.655Z,34.67
2022-08-17T19:44:07.682Z,37.73
2022-08-17T19:49:17.110Z,33.37
2022-08-17T19:54:26.970Z,33.13
2022-08-17T19:59:52.146Z,34.10
2022-08-17T20:05:00.989Z,35.13
2022-08-17T20:10:08.874Z,34.07
2022-08-17T20:15:17.775Z,36.93
2022-08-17T20:20:29.831Z,36.47
2022-08-17T20:25:43.808Z,36.20
2022-08-17T20:30:46.539Z,38.73
2022-08-17T20:36:04.710Z,37.50
2022-08-17T20:41:13.518Z,36.17
2022-08-17T20:46:52.027Z,37.87
2022-08-17T20:52:02.742Z,39.70
2022-08-17T20:57:14.121Z,40.20
2022-08-17T21:02:21.226Z,41.07
2022-08-17T21:07:30.017Z,41.50
2022-08-17T21:12:47.785Z,41.93
2022-08-17T21:18:02.044Z,42.13
2022-08-17T21:23:25.227Z,49.10
2022-08-17T21:29:01.070Z,50.63
2022-08-17T21:34:30.638Z,57.17
2022-08-17T21:39:41.673Z,59.13
2022-08-17T21:44:53.326Z,58.80
2022-08-17T21:50:14.262Z,59.27
2022-08-17T21:55:28.396Z,65.00
2022-08-17T22:00:46.310Z,61.30
2022-08-17T22:05:51.177Z,63.53
2022-08-17T22:11:08.178Z,59.60
2022-08-17T22:16:29.301Z,58.17
2022-08-17T22:21:46.246Z,58.37
2022-08-17T22:27:03.306Z,61.13
2022-08-17T22:32:07.717Z,58.57
2022-08-17T22:37:27.456Z,61.87
2022-08-17T22:42:32.330Z,56.00
2022-08-17T22:47:49.568Z,59.07
2022-08-17T22:53:33.325Z,65.70
2022-08-17T22:59:10.580Z,63.17
2022-08-17T23:04:43.157Z,66.60
2022-08-17T23:09:55.308Z,61.77
2022-08-17T23:15:01.510Z,65.30
2022-08-17T23:20:08.426Z,60.17
2022-08-17T23:25:16.268Z,57.87
2022-08-17T23:30:27.246Z,63.40
2022-08-17T23:35:39.845Z,61.50
2022-08-17T23:40:43.780Z,63.70
2022-08-17T23:45:48.585Z,58.97
2022-08-17T23:50:54.432Z,57.90
2022-08-17T23:56:09.339Z,61.10
